sensor_id;sensor_type;location;lat;lon;timestamp;P1;durP1;ratioP1;P2;durP2;ratioP2
22646;SDS011;11490;42.726;23.268;2022-12-10T00:01:24;30.00;;;13.10;;
22646;SDS011;11490;42.726;23.268;2022-12-10T00:03:51;21.17;;;12.35;;
22646;SDS011;11490;42.726;23.268;2022-12-10T00:06:18;13.57;;;8.60;;
22646;SDS011;11490;42.726;23.268;2022-12-10T00:08:46;41.58;;;17.38;;
22646;SDS011;11490;42.726;23.268;2022-12-10T00:11:13;25.92;;;13.18;;
22646;SDS011;11490;42.726;23.268;2022-12-10T00:13:40;30.13;;;20.23;;
22646;SDS011;11490;42.726;23.268;2022-12-10T00:16:07;40.85;;;22.35;;
22646;SDS011;11490;42.726;23.268;2022-12-10T00:18:34;40.15;;;25.33;;
22646;SDS011;11490;42.726;23.268;2022-12-10T00:21:20;33.70;;;20.67;;
22646;SDS011;11490;42.726;23.268;2022-12-10T00:23:47;20.25;;;12.25;;
22646;SDS011;11490;42.726;23.268;2022-12-10T00:28:43;18.85;;;11.65;;
22646;SDS011;11490;42.726;23.268;2022-12-10T00:31:11;19.02;;;10.52;;
22646;SDS011;11490;42.726;23.268;2022-12-10T00:33:41;19.30;;;9.65;;
22646;SDS011;11490;42.726;23.268;2022-12-10T00:36:15;30.35;;;9.82;;
22646;SDS011;11490;42.726;23.268;2022-12-10T00:38:42;12.90;;;7.45;;
22646;SDS011;11490;42.726;23.268;2022-12-10T00:41:08;13.57;;;8.27;;
22646;SDS011;11490;42.726;23.268;2022-12-10T00:43:34;10.90;;;5.97;;
22646;SDS011;11490;42.726;23.268;2022-12-10T00:46:01;11.55;;;6.57;;
22646;SDS011;11490;42.726;23.268;2022-12-10T00:48:27;12.38;;;5.90;;
22646;SDS011;11490;42.726;23.268;2022-12-10T00:51:07;11.38;;;5.93;;
22646;SDS011;11490;42.726;23.268;2022-12-10T00:53:36;12.02;;;6.18;;
22646;SDS011;11490;42.726;23.268;2022-12-10T00:56:03;17.65;;;10.88;;
22646;SDS011;11490;42.726;23.268;2022-12-10T00:58:29;10.48;;;6.88;;
22646;SDS011;11490;42.726;23.268;2022-12-10T01:01:14;11.73;;;6.35;;
22646;SDS011;11490;42.726;23.268;2022-12-10T01:03:46;15.15;;;7.10;;
22646;SDS011;11490;42.726;23.268;2022-12-10T01:08:42;16.27;;;6.47;;
22646;SDS011;11490;42.726;23.268;2022-12-10T01:11:09;19.15;;;10.27;;
22646;SDS011;11490;42.726;23.268;2022-12-10T01:13:36;10.15;;;6.10;;
22646;SDS011;11490;42.726;23.268;2022-12-10T01:16:03;6.78;;;4.20;;
22646;SDS011;11490;42.726;23.268;2022-12-10T01:18:30;10.57;;;5.68;;
22646;SDS011;11490;42.726;23.268;2022-12-10T01:20:59;8.00;;;4.90;;
22646;SDS011;11490;42.726;23.268;2022-12-10T01:23:33;14.05;;;8.05;;
22646;SDS011;11490;42.726;23.268;2022-12-10T01:26:01;8.88;;;5.47;;
22646;SDS011;11490;42.726;23.268;2022-12-10T01:28:28;10.60;;;5.20;;
22646;SDS011;11490;42.726;23.268;2022-12-10T01:30:55;9.93;;;5.30;;
22646;SDS011;11490;42.726;23.268;2022-12-10T01:33:20;11.18;;;6.32;;
22646;SDS011;11490;42.726;23.268;2022-12-10T01:35:46;9.35;;;5.55;;
22646;SDS011;11490;42.726;23.268;2022-12-10T01:38:11;13.50;;;9.05;;
22646;SDS011;11490;42.726;23.268;2022-12-10T01:40:37;13.07;;;8.38;;
22646;SDS011;11490;42.726;23.268;2022-12-10T01:43:03;15.90;;;8.10;;
22646;SDS011;11490;42.726;23.268;2022-12-10T01:45:29;11.55;;;6.57;;
22646;SDS011;11490;42.726;23.268;2022-12-10T01:47:54;15.30;;;8.65;;
22646;SDS011;11490;42.726;23.268;2022-12-10T01:50:20;22.70;;;9.95;;
22646;SDS011;11490;42.726;23.268;2022-12-10T01:52:45;15.23;;;9.18;;
22646;SDS011;11490;42.726;23.268;2022-12-10T01:58:04;10.45;;;6.53;;
22646;SDS011;11490;42.726;23.268;2022-12-10T02:00:30;8.82;;;4.95;;
22646;SDS011;11490;42.726;23.268;2022-12-10T02:03:01;12.10;;;6.32;;
22646;SDS011;11490;42.726;23.268;2022-12-10T02:05:37;11.68;;;7.20;;
22646;SDS011;11490;42.726;23.268;2022-12-10T02:21:52;11.70;;;7.85;;
22646;SDS011;11490;42.726;23.268;2022-12-10T02:24:24;18.85;;;9.38;;
22646;SDS011;11490;42.726;23.268;2022-12-10T02:26:58;11.98;;;6.78;;
22646;SDS011;11490;42.726;23.268;2022-12-10T02:29:30;10.77;;;6.78;;
22646;SDS011;11490;42.726;23.268;2022-12-10T02:32:00;14.95;;;5.93;;
22646;SDS011;11490;42.726;23.268;2022-12-10T02:34:32;12.10;;;6.55;;
22646;SDS011;11490;42.726;23.268;2022-12-10T02:37:01;9.85;;;5.78;;
22646;SDS011;11490;42.726;23.268;2022-12-10T02:39:33;7.75;;;5.47;;
22646;SDS011;11490;42.726;23.268;2022-12-10T02:42:03;22.13;;;9.32;;
22646;SDS011;11490;42.726;23.268;2022-12-10T02:44:31;20.10;;;11.43;;
22646;SDS011;11490;42.726;23.268;2022-12-10T02:46:58;21.17;;;10.75;;
22646;SDS011;11490;42.726;23.268;2022-12-10T02:49:25;14.02;;;6.25;;
22646;SDS011;11490;42.726;23.268;2022-12-10T02:51:52;15.25;;;6.72;;
22646;SDS011;11490;42.726;23.268;2022-12-10T02:54:34;11.60;;;7.15;;
22646;SDS011;11490;42.726;23.268;2022-12-10T02:57:10;69.20;;;28.02;;
22646;SDS011;11490;42.726;23.268;2022-12-10T03:02:43;12.95;;;6.82;;
22646;SDS011;11490;42.726;23.268;2022-12-10T03:07:41;13.57;;;8.20;;
22646;SDS011;11490;42.726;23.268;2022-12-10T03:10:19;20.38;;;8.00;;
22646;SDS011;11490;42.726;23.268;2022-12-10T03:12:54;15.70;;;7.88;;
22646;SDS011;11490;42.726;23.268;2022-12-10T03:15:29;10.63;;;6.55;;
22646;SDS011;11490;42.726;23.268;2022-12-10T03:17:58;15.25;;;6.03;;
22646;SDS011;11490;42.726;23.268;2022-12-10T03:20:27;18.95;;;7.43;;
22646;SDS011;11490;42.726;23.268;2022-12-10T03:22:55;10.20;;;7.60;;
22646;SDS011;11490;42.726;23.268;2022-12-10T03:25:24;17.50;;;7.53;;
22646;SDS011;11490;42.726;23.268;2022-12-10T03:27:51;12.43;;;7.07;;
22646;SDS011;11490;42.726;23.268;2022-12-10T03:30:20;11.25;;;7.53;;
22646;SDS011;11490;42.726;23.268;2022-12-10T03:32:46;15.07;;;6.63;;
22646;SDS011;11490;42.726;23.268;2022-12-10T03:35:12;17.40;;;7.03;;
22646;SDS011;11490;42.726;23.268;2022-12-10T03:37:39;10.90;;;7.60;;
22646;SDS011;11490;42.726;23.268;2022-12-10T03:40:05;15.70;;;7.35;;
22646;SDS011;11490;42.726;23.268;2022-12-10T03:42:34;15.05;;;7.82;;
22646;SDS011;11490;42.726;23.268;2022-12-10T03:45:01;16.48;;;7.60;;
22646;SDS011;11490;42.726;23.268;2022-12-10T03:47:26;11.85;;;5.97;;
22646;SDS011;11490;42.726;23.268;2022-12-10T03:49:52;8.65;;;6.40;;
22646;SDS011;11490;42.726;23.268;2022-12-10T03:52:17;9.98;;;6.65;;
22646;SDS011;11490;42.726;23.268;2022-12-10T03:54:43;9.88;;;6.75;;
22646;SDS011;11490;42.726;23.268;2022-12-10T03:57:08;12.75;;;6.78;;
22646;SDS011;11490;42.726;23.268;2022-12-10T03:59:33;9.85;;;6.57;;
22646;SDS011;11490;42.726;23.268;2022-12-10T04:01:59;14.35;;;6.75;;
22646;SDS011;11490;42.726;23.268;2022-12-10T04:04:25;14.98;;;7.43;;
22646;SDS011;11490;42.726;23.268;2022-12-10T04:06:50;11.65;;;7.43;;
22646;SDS011;11490;42.726;23.268;2022-12-10T04:09:16;16.05;;;9.40;;
22646;SDS011;11490;42.726;23.268;2022-12-10T04:11:42;14.93;;;9.00;;
22646;SDS011;11490;42.726;23.268;2022-12-10T04:14:08;12.65;;;8.60;;
22646;SDS011;11490;42.726;23.268;2022-12-10T04:16:53;12.95;;;6.93;;
22646;SDS011;11490;42.726;23.268;2022-12-10T04:19:19;16.83;;;9.43;;
22646;SDS011;11490;42.726;23.268;2022-12-10T04:21:45;26.33;;;11.88;;
22646;SDS011;11490;42.726;23.268;2022-12-10T04:24:31;19.25;;;11.02;;
22646;SDS011;11490;42.726;23.268;2022-12-10T04:27:26;12.68;;;6.22;;
22646;SDS011;11490;42.726;23.268;2022-12-10T04:29:54;20.63;;;7.85;;
22646;SDS011;11490;42.726;23.268;2022-12-10T04:32:21;16.02;;;6.88;;
22646;SDS011;11490;42.726;23.268;2022-12-10T04:34:47;16.23;;;8.80;;
22646;SDS011;11490;42.726;23.268;2022-12-10T04:37:13;12.32;;;6.75;;
22646;SDS011;11490;42.726;23.268;2022-12-10T04:39:39;12.02;;;5.57;;
22646;SDS011;11490;42.726;23.268;2022-12-10T04:42:07;10.27;;;5.25;;
22646;SDS011;11490;42.726;23.268;2022-12-10T04:44:32;15.50;;;6.90;;
22646;SDS011;11490;42.726;23.268;2022-12-10T04:46:58;11.00;;;6.93;;
22646;SDS011;11490;42.726;23.268;2022-12-10T04:49:23;20.75;;;9.00;;
22646;SDS011;11490;42.726;23.268;2022-12-10T04:51:49;12.07;;;6.82;;
22646;SDS011;11490;42.726;23.268;2022-12-10T04:54:15;9.43;;;5.88;;
22646;SDS011;11490;42.726;23.268;2022-12-10T04:56:41;15.95;;;7.20;;
22646;SDS011;11490;42.726;23.268;2022-12-10T04:59:08;14.57;;;7.65;;
22646;SDS011;11490;42.726;23.268;2022-12-10T05:01:34;16.77;;;8.40;;
22646;SDS011;11490;42.726;23.268;2022-12-10T05:04:01;12.60;;;7.75;;
22646;SDS011;11490;42.726;23.268;2022-12-10T05:06:28;19.98;;;8.50;;
22646;SDS011;11490;42.726;23.268;2022-12-10T05:08:53;20.73;;;9.50;;
22646;SDS011;11490;42.726;23.268;2022-12-10T05:11:20;21.33;;;11.35;;
22646;SDS011;11490;42.726;23.268;2022-12-10T05:13:46;21.42;;;10.57;;
22646;SDS011;11490;42.726;23.268;2022-12-10T05:16:14;15.98;;;9.50;;
22646;SDS011;11490;42.726;23.268;2022-12-10T05:18:43;17.15;;;9.00;;
22646;SDS011;11490;42.726;23.268;2022-12-10T05:21:10;11.40;;;8.65;;
22646;SDS011;11490;42.726;23.268;2022-12-10T05:23:38;27.35;;;12.82;;
22646;SDS011;11490;42.726;23.268;2022-12-10T05:28:33;18.85;;;12.93;;
22646;SDS011;11490;42.726;23.268;2022-12-10T05:31:01;19.92;;;13.18;;
22646;SDS011;11490;42.726;23.268;2022-12-10T05:33:27;25.70;;;15.50;;
22646;SDS011;11490;42.726;23.268;2022-12-10T05:38:18;18.65;;;12.32;;
22646;SDS011;11490;42.726;23.268;2022-12-10T05:40:43;15.70;;;10.45;;
22646;SDS011;11490;42.726;23.268;2022-12-10T05:43:08;19.92;;;9.70;;
22646;SDS011;11490;42.726;23.268;2022-12-10T05:45:34;13.98;;;9.93;;
22646;SDS011;11490;42.726;23.268;2022-12-10T05:47:59;16.48;;;10.85;;
22646;SDS011;11490;42.726;23.268;2022-12-10T05:50:26;15.60;;;9.95;;
22646;SDS011;11490;42.726;23.268;2022-12-10T05:52:52;21.13;;;11.80;;
22646;SDS011;11490;42.726;23.268;2022-12-10T05:55:17;24.33;;;12.88;;
22646;SDS011;11490;42.726;23.268;2022-12-10T05:57:42;35.42;;;21.63;;
22646;SDS011;11490;42.726;23.268;2022-12-10T06:00:08;25.67;;;17.40;;
22646;SDS011;11490;42.726;23.268;2022-12-10T06:02:35;20.33;;;14.07;;
22646;SDS011;11490;42.726;23.268;2022-12-10T06:05:00;25.33;;;15.88;;
22646;SDS011;11490;42.726;23.268;2022-12-10T06:07:26;29.52;;;17.48;;
22646;SDS011;11490;42.726;23.268;2022-12-10T06:09:51;28.80;;;15.18;;
22646;SDS011;11490;42.726;23.268;2022-12-10T06:12:17;25.73;;;17.27;;
22646;SDS011;11490;42.726;23.268;2022-12-10T06:14:42;32.65;;;17.50;;
22646;SDS011;11490;42.726;23.268;2022-12-10T06:17:07;39.58;;;21.75;;
22646;SDS011;11490;42.726;23.268;2022-12-10T06:19:33;22.95;;;15.70;;
22646;SDS011;11490;42.726;23.268;2022-12-10T06:21:58;22.58;;;9.75;;
22646;SDS011;11490;42.726;23.268;2022-12-10T06:24:24;12.43;;;8.57;;
22646;SDS011;11490;42.726;23.268;2022-12-10T06:26:50;15.63;;;9.60;;
22646;SDS011;11490;42.726;23.268;2022-12-10T06:29:16;20.38;;;10.90;;
22646;SDS011;11490;42.726;23.268;2022-12-10T06:31:41;20.08;;;9.88;;
22646;SDS011;11490;42.726;23.268;2022-12-10T06:34:07;13.68;;;8.23;;
22646;SDS011;11490;42.726;23.268;2022-12-10T06:36:32;17.83;;;10.10;;
22646;SDS011;11490;42.726;23.268;2022-12-10T06:38:57;22.77;;;11.52;;
22646;SDS011;11490;42.726;23.268;2022-12-10T06:41:23;27.20;;;15.10;;
22646;SDS011;11490;42.726;23.268;2022-12-10T06:43:48;25.45;;;14.35;;
22646;SDS011;11490;42.726;23.268;2022-12-10T06:46:15;29.65;;;15.95;;
22646;SDS011;11490;42.726;23.268;2022-12-10T06:48:42;30.65;;;15.50;;
22646;SDS011;11490;42.726;23.268;2022-12-10T06:51:08;24.77;;;15.57;;
22646;SDS011;11490;42.726;23.268;2022-12-10T06:53:35;18.17;;;12.00;;
22646;SDS011;11490;42.726;23.268;2022-12-10T06:56:02;16.70;;;11.05;;
22646;SDS011;11490;42.726;23.268;2022-12-10T06:58:29;28.88;;;14.00;;
22646;SDS011;11490;42.726;23.268;2022-12-10T07:01:05;21.77;;;13.05;;
22646;SDS011;11490;42.726;23.268;2022-12-10T07:03:33;39.35;;;20.55;;
22646;SDS011;11490;42.726;23.268;2022-12-10T07:05:58;38.92;;;20.05;;
22646;SDS011;11490;42.726;23.268;2022-12-10T07:08:25;27.73;;;15.57;;
22646;SDS011;11490;42.726;23.268;2022-12-10T07:10:50;30.63;;;14.82;;
22646;SDS011;11490;42.726;23.268;2022-12-10T07:13:16;20.88;;;14.35;;
22646;SDS011;11490;42.726;23.268;2022-12-10T07:15:41;22.05;;;14.27;;
22646;SDS011;11490;42.726;23.268;2022-12-10T07:18:06;17.63;;;12.77;;
22646;SDS011;11490;42.726;23.268;2022-12-10T07:20:32;21.88;;;11.80;;
22646;SDS011;11490;42.726;23.268;2022-12-10T07:22:57;15.65;;;10.55;;
22646;SDS011;11490;42.726;23.268;2022-12-10T07:25:22;13.02;;;8.02;;
22646;SDS011;11490;42.726;23.268;2022-12-10T07:27:48;14.00;;;8.90;;
22646;SDS011;11490;42.726;23.268;2022-12-10T07:30:13;15.88;;;9.63;;
22646;SDS011;11490;42.726;23.268;2022-12-10T07:32:39;17.48;;;10.20;;
22646;SDS011;11490;42.726;23.268;2022-12-10T07:35:04;19.23;;;10.57;;
22646;SDS011;11490;42.726;23.268;2022-12-10T07:37:30;15.38;;;9.32;;
22646;SDS011;11490;42.726;23.268;2022-12-10T07:39:55;17.98;;;11.00;;
22646;SDS011;11490;42.726;23.268;2022-12-10T07:42:21;18.73;;;11.40;;
22646;SDS011;11490;42.726;23.268;2022-12-10T07:44:47;21.75;;;13.07;;
22646;SDS011;11490;42.726;23.268;2022-12-10T07:47:13;16.48;;;10.90;;
22646;SDS011;11490;42.726;23.268;2022-12-10T07:49:38;16.25;;;10.27;;
22646;SDS011;11490;42.726;23.268;2022-12-10T07:52:04;20.58;;;10.93;;
22646;SDS011;11490;42.726;23.268;2022-12-10T07:54:29;12.25;;;8.10;;
22646;SDS011;11490;42.726;23.268;2022-12-10T07:56:55;18.00;;;8.35;;
22646;SDS011;11490;42.726;23.268;2022-12-10T07:59:20;11.35;;;7.85;;
22646;SDS011;11490;42.726;23.268;2022-12-10T08:01:45;9.73;;;7.38;;
22646;SDS011;11490;42.726;23.268;2022-12-10T08:04:11;11.25;;;6.90;;
22646;SDS011;11490;42.726;23.268;2022-12-10T08:06:36;13.65;;;9.73;;
22646;SDS011;11490;42.726;23.268;2022-12-10T08:09:02;14.90;;;7.60;;
22646;SDS011;11490;42.726;23.268;2022-12-10T08:11:27;12.43;;;7.13;;
22646;SDS011;11490;42.726;23.268;2022-12-10T08:13:53;10.70;;;7.15;;
22646;SDS011;11490;42.726;23.268;2022-12-10T08:16:20;8.95;;;6.45;;
22646;SDS011;11490;42.726;23.268;2022-12-10T08:18:48;9.63;;;7.35;;
22646;SDS011;11490;42.726;23.268;2022-12-10T08:21:23;16.83;;;8.45;;
22646;SDS011;11490;42.726;23.268;2022-12-10T08:23:51;14.27;;;8.45;;
22646;SDS011;11490;42.726;23.268;2022-12-10T08:26:17;35.55;;;14.90;;
22646;SDS011;11490;42.726;23.268;2022-12-10T08:28:45;16.92;;;9.65;;
22646;SDS011;11490;42.726;23.268;2022-12-10T08:31:12;22.48;;;13.38;;
22646;SDS011;11490;42.726;23.268;2022-12-10T08:33:38;26.30;;;14.55;;
22646;SDS011;11490;42.726;23.268;2022-12-10T08:36:04;29.50;;;13.43;;
22646;SDS011;11490;42.726;23.268;2022-12-10T08:38:32;19.88;;;10.93;;
22646;SDS011;11490;42.726;23.268;2022-12-10T08:40:57;18.83;;;10.75;;
22646;SDS011;11490;42.726;23.268;2022-12-10T08:43:23;26.80;;;15.07;;
22646;SDS011;11490;42.726;23.268;2022-12-10T08:45:49;20.20;;;14.55;;
22646;SDS011;11490;42.726;23.268;2022-12-10T08:48:14;22.02;;;13.02;;
22646;SDS011;11490;42.726;23.268;2022-12-10T08:50:40;11.93;;;7.05;;
22646;SDS011;11490;42.726;23.268;2022-12-10T08:53:05;28.60;;;11.63;;
22646;SDS011;11490;42.726;23.268;2022-12-10T08:55:31;23.75;;;10.30;;
22646;SDS011;11490;42.726;23.268;2022-12-10T08:57:57;17.05;;;7.70;;
22646;SDS011;11490;42.726;23.268;2022-12-10T09:00:23;10.70;;;6.05;;
22646;SDS011;11490;42.726;23.268;2022-12-10T09:02:49;9.00;;;5.63;;
22646;SDS011;11490;42.726;23.268;2022-12-10T09:05:14;16.25;;;10.02;;
22646;SDS011;11490;42.726;23.268;2022-12-10T09:07:40;12.45;;;6.28;;
22646;SDS011;11490;42.726;23.268;2022-12-10T09:10:05;7.63;;;4.78;;
22646;SDS011;11490;42.726;23.268;2022-12-10T09:12:34;13.73;;;4.85;;
22646;SDS011;11490;42.726;23.268;2022-12-10T09:15:00;9.15;;;4.70;;
22646;SDS011;11490;42.726;23.268;2022-12-10T09:17:25;7.55;;;4.63;;
22646;SDS011;11490;42.726;23.268;2022-12-10T09:19:50;11.43;;;4.40;;
22646;SDS011;11490;42.726;23.268;2022-12-10T09:22:16;9.45;;;5.35;;
22646;SDS011;11490;42.726;23.268;2022-12-10T09:24:41;61.22;;;25.33;;
22646;SDS011;11490;42.726;23.268;2022-12-10T09:27:07;14.27;;;9.90;;
22646;SDS011;11490;42.726;23.268;2022-12-10T09:29:32;9.65;;;6.78;;
22646;SDS011;11490;42.726;23.268;2022-12-10T09:31:57;6.28;;;4.57;;
22646;SDS011;11490;42.726;23.268;2022-12-10T09:34:23;10.00;;;5.22;;
22646;SDS011;11490;42.726;23.268;2022-12-10T09:36:48;8.98;;;5.03;;
22646;SDS011;11490;42.726;23.268;2022-12-10T09:39:14;6.45;;;4.50;;
22646;SDS011;11490;42.726;23.268;2022-12-10T09:41:47;9.65;;;5.80;;
22646;SDS011;11490;42.726;23.268;2022-12-10T09:47:10;16.40;;;8.38;;
22646;SDS011;11490;42.726;23.268;2022-12-10T09:52:21;11.43;;;6.85;;
22646;SDS011;11490;42.726;23.268;2022-12-10T09:54:59;12.05;;;8.65;;
22646;SDS011;11490;42.726;23.268;2022-12-10T09:57:38;8.95;;;5.60;;
22646;SDS011;11490;42.726;23.268;2022-12-10T10:00:15;9.10;;;4.70;;
22646;SDS011;11490;42.726;23.268;2022-12-10T10:02:41;11.23;;;6.80;;
22646;SDS011;11490;42.726;23.268;2022-12-10T10:07:33;8.35;;;5.20;;
22646;SDS011;11490;42.726;23.268;2022-12-10T10:10:04;12.00;;;5.97;;
22646;SDS011;11490;42.726;23.268;2022-12-10T10:12:35;8.48;;;5.60;;
22646;SDS011;11490;42.726;23.268;2022-12-10T10:15:14;11.82;;;5.50;;
22646;SDS011;11490;42.726;23.268;2022-12-10T10:17:42;10.73;;;5.82;;
22646;SDS011;11490;42.726;23.268;2022-12-10T10:20:14;9.02;;;4.97;;
22646;SDS011;11490;42.726;23.268;2022-12-10T10:22:40;11.23;;;6.60;;
22646;SDS011;11490;42.726;23.268;2022-12-10T10:25:09;8.82;;;6.20;;
22646;SDS011;11490;42.726;23.268;2022-12-10T10:27:43;8.23;;;5.05;;
22646;SDS011;11490;42.726;23.268;2022-12-10T10:30:16;16.25;;;8.27;;
22646;SDS011;11490;42.726;23.268;2022-12-10T10:32:45;8.18;;;5.72;;
22646;SDS011;11490;42.726;23.268;2022-12-10T10:35:33;18.67;;;11.98;;
22646;SDS011;11490;42.726;23.268;2022-12-10T10:38:28;16.42;;;7.32;;
22646;SDS011;11490;42.726;23.268;2022-12-10T10:40:56;9.02;;;5.55;;
22646;SDS011;11490;42.726;23.268;2022-12-10T10:43:40;7.18;;;5.20;;
22646;SDS011;11490;42.726;23.268;2022-12-10T10:46:12;10.30;;;5.20;;
22646;SDS011;11490;42.726;23.268;2022-12-10T10:48:40;7.03;;;5.25;;
22646;SDS011;11490;42.726;23.268;2022-12-10T10:53:49;14.05;;;5.88;;
22646;SDS011;11490;42.726;23.268;2022-12-10T10:56:20;7.68;;;4.90;;
22646;SDS011;11490;42.726;23.268;2022-12-10T11:01:23;141.05;;;56.25;;
22646;SDS011;11490;42.726;23.268;2022-12-10T11:04:07;31.63;;;15.35;;
22646;SDS011;11490;42.726;23.268;2022-12-10T11:06:33;10.52;;;6.25;;
22646;SDS011;11490;42.726;23.268;2022-12-10T11:08:58;9.32;;;5.43;;
22646;SDS011;11490;42.726;23.268;2022-12-10T11:11:30;9.00;;;4.00;;
22646;SDS011;11490;42.726;23.268;2022-12-10T11:14:13;6.90;;;3.97;;
22646;SDS011;11490;42.726;23.268;2022-12-10T11:16:44;18.70;;;8.02;;
22646;SDS011;11490;42.726;23.268;2022-12-10T11:19:17;10.25;;;5.38;;
22646;SDS011;11490;42.726;23.268;2022-12-10T11:21:46;12.48;;;6.75;;
22646;SDS011;11490;42.726;23.268;2022-12-10T11:24:12;7.72;;;4.53;;
22646;SDS011;11490;42.726;23.268;2022-12-10T11:29:36;26.52;;;13.73;;
22646;SDS011;11490;42.726;23.268;2022-12-10T11:35:04;14.95;;;8.52;;
22646;SDS011;11490;42.726;23.268;2022-12-10T11:37:43;11.38;;;5.35;;
22646;SDS011;11490;42.726;23.268;2022-12-10T11:40:30;14.27;;;7.38;;
22646;SDS011;11490;42.726;23.268;2022-12-10T11:57:34;9.50;;;5.50;;
22646;SDS011;11490;42.726;23.268;2022-12-10T12:00:24;8.07;;;4.07;;
22646;SDS011;11490;42.726;23.268;2022-12-10T12:14:41;6.35;;;3.25;;
22646;SDS011;11490;42.726;23.268;2022-12-10T12:19:53;8.02;;;3.00;;
22646;SDS011;11490;42.726;23.268;2022-12-10T12:22:23;4.85;;;3.28;;
22646;SDS011;11490;42.726;23.268;2022-12-10T12:24:53;4.38;;;3.78;;
22646;SDS011;11490;42.726;23.268;2022-12-10T12:27:33;8.50;;;4.10;;
22646;SDS011;11490;42.726;23.268;2022-12-10T12:41:16;4.70;;;3.55;;
22646;SDS011;11490;42.726;23.268;2022-12-10T12:50:04;33.92;;;20.17;;
22646;SDS011;11490;42.726;23.268;2022-12-10T12:52:53;24.05;;;13.57;;
22646;SDS011;11490;42.726;23.268;2022-12-10T13:04:18;11.45;;;5.82;;
22646;SDS011;11490;42.726;23.268;2022-12-10T13:09:50;12.85;;;8.02;;
22646;SDS011;11490;42.726;23.268;2022-12-10T13:12:44;10.00;;;6.45;;
22646;SDS011;11490;42.726;23.268;2022-12-10T13:23:05;42.55;;;23.77;;
22646;SDS011;11490;42.726;23.268;2022-12-10T13:49:57;17.30;;;9.55;;
22646;SDS011;11490;42.726;23.268;2022-12-10T13:52:26;23.55;;;13.07;;
22646;SDS011;11490;42.726;23.268;2022-12-10T14:00:41;29.85;;;12.93;;
22646;SDS011;11490;42.726;23.268;2022-12-10T14:08:38;15.60;;;9.48;;
22646;SDS011;11490;42.726;23.268;2022-12-10T14:11:10;17.95;;;10.23;;
22646;SDS011;11490;42.726;23.268;2022-12-10T14:13:44;20.60;;;9.68;;
22646;SDS011;11490;42.726;23.268;2022-12-10T14:16:14;19.50;;;9.60;;
22646;SDS011;11490;42.726;23.268;2022-12-10T14:18:44;21.45;;;11.48;;
22646;SDS011;11490;42.726;23.268;2022-12-10T14:21:18;19.30;;;11.00;;
22646;SDS011;11490;42.726;23.268;2022-12-10T14:23:45;16.83;;;10.98;;
22646;SDS011;11490;42.726;23.268;2022-12-10T14:26:19;17.10;;;10.38;;
22646;SDS011;11490;42.726;23.268;2022-12-10T14:28:57;22.42;;;11.55;;
22646;SDS011;11490;42.726;23.268;2022-12-10T14:31:31;21.83;;;11.48;;
22646;SDS011;11490;42.726;23.268;2022-12-10T14:34:08;23.35;;;14.02;;
22646;SDS011;11490;42.726;23.268;2022-12-10T14:36:39;23.45;;;11.70;;
22646;SDS011;11490;42.726;23.268;2022-12-10T14:39:15;23.80;;;13.18;;
22646;SDS011;11490;42.726;23.268;2022-12-10T14:41:42;33.42;;;13.90;;
22646;SDS011;11490;42.726;23.268;2022-12-10T14:44:11;27.65;;;14.38;;
22646;SDS011;11490;42.726;23.268;2022-12-10T14:46:38;45.45;;;30.52;;
22646;SDS011;11490;42.726;23.268;2022-12-10T14:49:04;42.83;;;25.65;;
22646;SDS011;11490;42.726;23.268;2022-12-10T14:51:32;29.95;;;18.38;;
22646;SDS011;11490;42.726;23.268;2022-12-10T14:54:02;34.17;;;23.10;;
22646;SDS011;11490;42.726;23.268;2022-12-10T14:59:05;93.32;;;65.07;;
22646;SDS011;11490;42.726;23.268;2022-12-10T15:01:36;56.78;;;35.85;;
22646;SDS011;11490;42.726;23.268;2022-12-10T15:04:06;63.53;;;43.42;;
22646;SDS011;11490;42.726;23.268;2022-12-10T15:06:42;37.30;;;26.90;;
22646;SDS011;11490;42.726;23.268;2022-12-10T15:09:15;18.00;;;9.70;;
22646;SDS011;11490;42.726;23.268;2022-12-10T15:11:44;45.00;;;19.50;;
22646;SDS011;11490;42.726;23.268;2022-12-10T15:14:15;51.30;;;26.40;;
22646;SDS011;11490;42.726;23.268;2022-12-10T15:16:43;27.40;;;14.40;;
22646;SDS011;11490;42.726;23.268;2022-12-10T15:24:45;54.50;;;26.33;;
22646;SDS011;11490;42.726;23.268;2022-12-10T15:27:24;51.38;;;26.58;;
22646;SDS011;11490;42.726;23.268;2022-12-10T15:29:50;53.75;;;28.10;;
22646;SDS011;11490;42.726;23.268;2022-12-10T15:32:26;42.17;;;23.20;;
22646;SDS011;11490;42.726;23.268;2022-12-10T15:35:05;37.88;;;20.27;;
22646;SDS011;11490;42.726;23.268;2022-12-10T15:37:38;33.15;;;18.45;;
22646;SDS011;11490;42.726;23.268;2022-12-10T15:40:06;24.40;;;13.77;;
22646;SDS011;11490;42.726;23.268;2022-12-10T15:42:46;36.15;;;17.38;;
22646;SDS011;11490;42.726;23.268;2022-12-10T15:47:51;27.58;;;16.05;;
22646;SDS011;11490;42.726;23.268;2022-12-10T15:50:19;25.75;;;14.20;;
22646;SDS011;11490;42.726;23.268;2022-12-10T15:52:45;56.80;;;30.30;;
22646;SDS011;11490;42.726;23.268;2022-12-10T15:55:12;35.95;;;20.13;;
22646;SDS011;11490;42.726;23.268;2022-12-10T15:57:38;38.28;;;19.88;;
22646;SDS011;11490;42.726;23.268;2022-12-10T16:00:30;35.58;;;20.08;;
22646;SDS011;11490;42.726;23.268;2022-12-10T16:02:59;32.25;;;18.90;;
22646;SDS011;11490;42.726;23.268;2022-12-10T16:07:56;25.80;;;15.00;;
22646;SDS011;11490;42.726;23.268;2022-12-10T16:10:26;32.22;;;14.88;;
22646;SDS011;11490;42.726;23.268;2022-12-10T16:15:40;28.55;;;13.88;;
22646;SDS011;11490;42.726;23.268;2022-12-10T16:18:11;26.52;;;14.45;;
22646;SDS011;11490;42.726;23.268;2022-12-10T16:20:36;28.65;;;14.93;;
22646;SDS011;11490;42.726;23.268;2022-12-10T16:23:02;29.55;;;17.27;;
22646;SDS011;11490;42.726;23.268;2022-12-10T16:25:30;30.58;;;15.82;;
22646;SDS011;11490;42.726;23.268;2022-12-10T16:27:57;40.42;;;23.73;;
22646;SDS011;11490;42.726;23.268;2022-12-10T16:32:50;51.90;;;28.65;;
22646;SDS011;11490;42.726;23.268;2022-12-10T16:35:17;65.40;;;35.80;;
22646;SDS011;11490;42.726;23.268;2022-12-10T16:37:43;70.40;;;40.08;;
22646;SDS011;11490;42.726;23.268;2022-12-10T16:40:11;60.65;;;33.80;;
22646;SDS011;11490;42.726;23.268;2022-12-10T16:42:38;54.58;;;33.22;;
22646;SDS011;11490;42.726;23.268;2022-12-10T16:45:17;77.85;;;40.40;;
22646;SDS011;11490;42.726;23.268;2022-12-10T16:48:03;61.10;;;33.92;;
22646;SDS011;11490;42.726;23.268;2022-12-10T16:50:29;70.97;;;37.58;;
22646;SDS011;11490;42.726;23.268;2022-12-10T16:52:55;65.15;;;35.50;;
22646;SDS011;11490;42.726;23.268;2022-12-10T16:55:22;63.20;;;34.03;;
22646;SDS011;11490;42.726;23.268;2022-12-10T16:57:51;60.88;;;35.50;;
22646;SDS011;11490;42.726;23.268;2022-12-10T17:00:19;61.22;;;37.33;;
22646;SDS011;11490;42.726;23.268;2022-12-10T17:02:49;322.35;;;123.25;;
22646;SDS011;11490;42.726;23.268;2022-12-10T17:05:16;108.20;;;55.20;;
22646;SDS011;11490;42.726;23.268;2022-12-10T17:07:42;148.50;;;68.30;;
22646;SDS011;11490;42.726;23.268;2022-12-10T17:10:10;139.05;;;71.88;;
22646;SDS011;11490;42.726;23.268;2022-12-10T17:12:36;114.43;;;59.70;;
22646;SDS011;11490;42.726;23.268;2022-12-10T17:15:02;120.10;;;62.65;;
22646;SDS011;11490;42.726;23.268;2022-12-10T17:17:28;87.97;;;46.55;;
22646;SDS011;11490;42.726;23.268;2022-12-10T17:19:54;117.20;;;63.22;;